KRIC/RIC METAR and TAF weather

Enter ICAO airport designator
Station Type Date Time Source
KRIC METAR 2020/08/11 01:31 UTC NOAA

KRIC 110131Z 17005KT 10SM FEW045 SCT075 SCT200 BKN300 25/22 A2998 RMK AO2 TSE25 T02500222


Station Type Date Time Source
KRIC Decoded METAR 2020/08/11 01:31 UTC NOAA

RICHMOND INTERNATIONAL AIRPORT, VA, United States (KRIC) 37-31N 077-19W 50M
Aug 10, 2020 - 09:31 PM EDT / 2020.08.11 0131 UTC
Wind: from the S (170 degrees) at 6 MPH (5 KT):0
Visibility: 10 mile(s):0
Sky conditions: mostly cloudy
Temperature: 77.0 F (25.0 C)
Dew Point: 72.0 F (22.2 C)
Relative Humidity: 84%
Pressure (altimeter): 29.98 in. Hg (1015 hPa)
ob: KRIC 110131Z 17005KT 10SM FEW045 SCT075 SCT200 BKN300 25/22 A2998 RMK AO2 TSE25 T02500222
cycle: 1

Station Type Date Time Source
KRIC TAF 2020/08/10 18:22 UTC NOAA

TAF KRIC 101720Z 1018/1118 VRB03KT P6SM VCTS SCT040CB
FM102300 16005KT P6SM SCT250
FM111000 00000KT 4SM BR SCT250
FM111300 17003KT P6SM SCT250

Example: see airport list